Hawthorne, California
Current Conditions -  °F | °C
As of 8:53 PM on Saturday 25 Oct 2014 (Local Time) from KHHR Reporting Station
Clear Clear  
Wind Chill: 69°   Ceiling: Unl
Heat Index: 69°   Visibility: 10mi
Dew Point: 63°   Wind: 7mph
Humidity: 81%   Direction: 250°WSW
Pressure: 30"   Gusts: NA
Location:  33.92°N, 118.35°W
Report Text: KHHR 260353Z AUTO 25006KT 10SM CLR 21/17 A3000 RMK AO2 SLP158 T02060172
Loading
Personal Weather Stations






























Interactive Weather Map New forecast layout! Learn more

10-Day Weather Forecast

Advertisements
Track Severe Weather on mobile